sensor_id;sensor_type;location;lat;lon;timestamp;P1;durP1;ratioP1;P2;durP2;ratioP2
20792;SDS011;10556;-33.662;151.094;2023-02-28T00:00:31;2.07;;;0.83;;
20792;SDS011;10556;-33.662;151.094;2023-02-28T00:05:32;0.97;;;0.60;;
20792;SDS011;10556;-33.662;151.094;2023-02-28T00:10:35;1.20;;;0.80;;
20792;SDS011;10556;-33.662;151.094;2023-02-28T00:15:36;1.63;;;0.90;;
20792;SDS011;10556;-33.662;151.094;2023-02-28T00:20:37;3.90;;;1.07;;
20792;SDS011;10556;-33.662;151.094;2023-02-28T00:25:41;2.50;;;1.00;;
20792;SDS011;10556;-33.662;151.094;2023-02-28T00:30:42;5.33;;;1.23;;
20792;SDS011;10556;-33.662;151.094;2023-02-28T00:35:43;2.83;;;0.97;;
20792;SDS011;10556;-33.662;151.094;2023-02-28T00:40:46;2.07;;;0.80;;
20792;SDS011;10556;-33.662;151.094;2023-02-28T00:45:47;2.10;;;0.70;;
20792;SDS011;10556;-33.662;151.094;2023-02-28T00:50:49;2.83;;;0.53;;
20792;SDS011;10556;-33.662;151.094;2023-02-28T00:55:52;2.27;;;0.60;;
20792;SDS011;10556;-33.662;151.094;2023-02-28T01:00:53;4.00;;;0.80;;
20792;SDS011;10556;-33.662;151.094;2023-02-28T01:05:54;4.30;;;1.00;;
20792;SDS011;10556;-33.662;151.094;2023-02-28T01:10:57;1.60;;;0.63;;
20792;SDS011;10556;-33.662;151.094;2023-02-28T01:15:59;3.80;;;1.00;;
20792;SDS011;10556;-33.662;151.094;2023-02-28T01:21:03;1.73;;;0.60;;
20792;SDS011;10556;-33.662;151.094;2023-02-28T01:26:06;2.07;;;0.70;;
20792;SDS011;10556;-33.662;151.094;2023-02-28T01:31:08;3.50;;;0.70;;
20792;SDS011;10556;-33.662;151.094;2023-02-28T01:36:10;1.80;;;0.90;;
20792;SDS011;10556;-33.662;151.094;2023-02-28T01:41:15;5.13;;;0.90;;
20792;SDS011;10556;-33.662;151.094;2023-02-28T01:46:17;3.13;;;1.10;;
20792;SDS011;10556;-33.662;151.094;2023-02-28T01:51:18;1.40;;;0.60;;
20792;SDS011;10556;-33.662;151.094;2023-02-28T01:56:24;1.83;;;0.70;;
20792;SDS011;10556;-33.662;151.094;2023-02-28T02:01:27;4.47;;;0.90;;
20792;SDS011;10556;-33.662;151.094;2023-02-28T02:06:30;1.97;;;0.63;;
20792;SDS011;10556;-33.662;151.094;2023-02-28T02:11:34;0.83;;;0.57;;
20792;SDS011;10556;-33.662;151.094;2023-02-28T02:16:39;2.80;;;0.68;;
20792;SDS011;10556;-33.662;151.094;2023-02-28T02:27:20;2.92;;;0.75;;
20792;SDS011;10556;-33.662;151.094;2023-02-28T02:32:29;1.83;;;0.68;;
20792;SDS011;10556;-33.662;151.094;2023-02-28T02:37:39;2.10;;;0.67;;
20792;SDS011;10556;-33.662;151.094;2023-02-28T02:42:45;2.20;;;0.53;;
20792;SDS011;10556;-33.662;151.094;2023-02-28T02:47:48;1.03;;;0.57;;
20792;SDS011;10556;-33.662;151.094;2023-02-28T02:52:53;2.60;;;0.60;;
20792;SDS011;10556;-33.662;151.094;2023-02-28T02:57:57;1.47;;;0.53;;
20792;SDS011;10556;-33.662;151.094;2023-02-28T03:02:58;1.23;;;0.50;;
20792;SDS011;10556;-33.662;151.094;2023-02-28T03:08:04;4.10;;;0.70;;
20792;SDS011;10556;-33.662;151.094;2023-02-28T03:13:12;1.30;;;0.50;;
20792;SDS011;10556;-33.662;151.094;2023-02-28T03:18:17;4.65;;;0.70;;
20792;SDS011;10556;-33.662;151.094;2023-02-28T03:23:23;2.75;;;0.50;;
20792;SDS011;10556;-33.662;151.094;2023-02-28T03:28:28;2.42;;;0.50;;
20792;SDS011;10556;-33.662;151.094;2023-02-28T03:33:31;3.50;;;0.50;;
20792;SDS011;10556;-33.662;151.094;2023-02-28T03:38:36;6.68;;;0.88;;
20792;SDS011;10556;-33.662;151.094;2023-02-28T03:43:39;2.28;;;0.52;;
20792;SDS011;10556;-33.662;151.094;2023-02-28T03:48:42;3.58;;;0.85;;
20792;SDS011;10556;-33.662;151.094;2023-02-28T03:53:47;3.53;;;0.60;;
20792;SDS011;10556;-33.662;151.094;2023-02-28T03:58:53;5.55;;;1.00;;
20792;SDS011;10556;-33.662;151.094;2023-02-28T04:03:56;2.33;;;0.63;;
20792;SDS011;10556;-33.662;151.094;2023-02-28T04:08:59;1.40;;;0.50;;
20792;SDS011;10556;-33.662;151.094;2023-02-28T04:14:00;3.60;;;0.75;;
20792;SDS011;10556;-33.662;151.094;2023-02-28T04:19:02;4.70;;;0.90;;
20792;SDS011;10556;-33.662;151.094;2023-02-28T04:24:05;2.92;;;0.93;;
20792;SDS011;10556;-33.662;151.094;2023-02-28T04:29:07;5.38;;;0.80;;
20792;SDS011;10556;-33.662;151.094;2023-02-28T04:34:08;1.50;;;0.60;;
20792;SDS011;10556;-33.662;151.094;2023-02-28T04:39:11;3.72;;;0.70;;
20792;SDS011;10556;-33.662;151.094;2023-02-28T04:44:13;4.57;;;1.00;;
20792;SDS011;10556;-33.662;151.094;2023-02-28T04:49:14;4.22;;;0.90;;
20792;SDS011;10556;-33.662;151.094;2023-02-28T04:54:17;6.78;;;1.13;;
20792;SDS011;10556;-33.662;151.094;2023-02-28T04:59:18;6.53;;;1.08;;
20792;SDS011;10556;-33.662;151.094;2023-02-28T05:04:20;2.55;;;0.63;;
20792;SDS011;10556;-33.662;151.094;2023-02-28T05:09:23;6.53;;;1.00;;
20792;SDS011;10556;-33.662;151.094;2023-02-28T05:14:24;2.80;;;0.80;;
20792;SDS011;10556;-33.662;151.094;2023-02-28T05:19:25;1.90;;;0.65;;
20792;SDS011;10556;-33.662;151.094;2023-02-28T05:24:28;3.05;;;0.88;;
20792;SDS011;10556;-33.662;151.094;2023-02-28T05:29:29;2.17;;;1.00;;
20792;SDS011;10556;-33.662;151.094;2023-02-28T05:34:31;3.80;;;1.37;;
20792;SDS011;10556;-33.662;151.094;2023-02-28T05:39:34;7.45;;;1.40;;
20792;SDS011;10556;-33.662;151.094;2023-02-28T05:44:35;2.38;;;0.88;;
20792;SDS011;10556;-33.662;151.094;2023-02-28T05:49:37;2.80;;;1.27;;
20792;SDS011;10556;-33.662;151.094;2023-02-28T05:54:40;2.13;;;0.68;;
20792;SDS011;10556;-33.662;151.094;2023-02-28T05:59:41;3.58;;;0.95;;
20792;SDS011;10556;-33.662;151.094;2023-02-28T06:04:42;1.60;;;0.90;;
20792;SDS011;10556;-33.662;151.094;2023-02-28T06:09:45;1.70;;;0.73;;
20792;SDS011;10556;-33.662;151.094;2023-02-28T06:14:47;4.20;;;1.00;;
20792;SDS011;10556;-33.662;151.094;2023-02-28T06:19:48;4.40;;;1.20;;
20792;SDS011;10556;-33.662;151.094;2023-02-28T06:24:51;2.72;;;1.10;;
20792;SDS011;10556;-33.662;151.094;2023-02-28T06:29:53;1.33;;;1.10;;
20792;SDS011;10556;-33.662;151.094;2023-02-28T06:34:55;4.05;;;1.00;;
20792;SDS011;10556;-33.662;151.094;2023-02-28T06:39:58;4.93;;;0.90;;
20792;SDS011;10556;-33.662;151.094;2023-02-28T06:44:59;5.63;;;1.23;;
20792;SDS011;10556;-33.662;151.094;2023-02-28T06:50:00;2.37;;;1.27;;
20792;SDS011;10556;-33.662;151.094;2023-02-28T06:55:04;2.90;;;0.90;;
20792;SDS011;10556;-33.662;151.094;2023-02-28T07:00:07;5.13;;;1.10;;
20792;SDS011;10556;-33.662;151.094;2023-02-28T07:05:09;3.47;;;1.07;;
20792;SDS011;10556;-33.662;151.094;2023-02-28T07:10:12;2.77;;;0.90;;
20792;SDS011;10556;-33.662;151.094;2023-02-28T07:15:14;9.60;;;1.40;;
20792;SDS011;10556;-33.662;151.094;2023-02-28T07:20:15;1.30;;;0.90;;
20792;SDS011;10556;-33.662;151.094;2023-02-28T07:25:18;3.90;;;1.00;;
20792;SDS011;10556;-33.662;151.094;2023-02-28T07:30:20;4.07;;;0.90;;
20792;SDS011;10556;-33.662;151.094;2023-02-28T07:35:21;3.80;;;0.93;;
20792;SDS011;10556;-33.662;151.094;2023-02-28T07:40:25;4.23;;;1.20;;
20792;SDS011;10556;-33.662;151.094;2023-02-28T07:45:26;6.23;;;1.00;;
20792;SDS011;10556;-33.662;151.094;2023-02-28T07:50:28;2.23;;;1.00;;
20792;SDS011;10556;-33.662;151.094;2023-02-28T07:55:31;2.23;;;0.97;;
20792;SDS011;10556;-33.662;151.094;2023-02-28T08:00:32;5.90;;;1.30;;
20792;SDS011;10556;-33.662;151.094;2023-02-28T08:05:37;3.00;;;1.00;;
20792;SDS011;10556;-33.662;151.094;2023-02-28T08:10:40;6.00;;;1.70;;
20792;SDS011;10556;-33.662;151.094;2023-02-28T08:15:42;3.67;;;1.27;;
20792;SDS011;10556;-33.662;151.094;2023-02-28T08:20:43;4.63;;;1.10;;
20792;SDS011;10556;-33.662;151.094;2023-02-28T08:25:52;6.17;;;2.07;;
20792;SDS011;10556;-33.662;151.094;2023-02-28T08:30:53;3.23;;;1.03;;
20792;SDS011;10556;-33.662;151.094;2023-02-28T08:35:54;2.87;;;1.00;;
20792;SDS011;10556;-33.662;151.094;2023-02-28T08:41:01;1.63;;;1.00;;
20792;SDS011;10556;-33.662;151.094;2023-02-28T08:46:02;2.23;;;0.97;;
20792;SDS011;10556;-33.662;151.094;2023-02-28T08:51:05;2.37;;;0.87;;
20792;SDS011;10556;-33.662;151.094;2023-02-28T08:56:13;5.77;;;1.10;;
20792;SDS011;10556;-33.662;151.094;2023-02-28T09:01:15;4.10;;;1.30;;
20792;SDS011;10556;-33.662;151.094;2023-02-28T09:06:17;4.10;;;1.40;;
20792;SDS011;10556;-33.662;151.094;2023-02-28T09:11:21;5.10;;;1.37;;
20792;SDS011;10556;-33.662;151.094;2023-02-28T09:16:22;5.87;;;1.47;;
20792;SDS011;10556;-33.662;151.094;2023-02-28T09:21:23;4.33;;;1.20;;
20792;SDS011;10556;-33.662;151.094;2023-02-28T09:26:26;4.33;;;1.40;;
20792;SDS011;10556;-33.662;151.094;2023-02-28T09:31:28;5.43;;;1.60;;
20792;SDS011;10556;-33.662;151.094;2023-02-28T09:36:29;5.40;;;1.40;;
20792;SDS011;10556;-33.662;151.094;2023-02-28T09:41:37;3.27;;;1.20;;
20792;SDS011;10556;-33.662;151.094;2023-02-28T09:46:39;4.13;;;1.10;;
20792;SDS011;10556;-33.662;151.094;2023-02-28T09:51:44;5.40;;;1.30;;
20792;SDS011;10556;-33.662;151.094;2023-02-28T09:56:49;3.83;;;1.10;;
20792;SDS011;10556;-33.662;151.094;2023-02-28T10:01:52;4.40;;;1.60;;
20792;SDS011;10556;-33.662;151.094;2023-02-28T10:06:55;5.70;;;1.40;;
20792;SDS011;10556;-33.662;151.094;2023-02-28T10:12:01;5.97;;;1.60;;
20792;SDS011;10556;-33.662;151.094;2023-02-28T10:17:04;4.23;;;1.33;;
20792;SDS011;10556;-33.662;151.094;2023-02-28T10:22:10;5.00;;;1.60;;
20792;SDS011;10556;-33.662;151.094;2023-02-28T10:27:15;5.20;;;1.60;;
20792;SDS011;10556;-33.662;151.094;2023-02-28T10:32:17;6.37;;;1.40;;
20792;SDS011;10556;-33.662;151.094;2023-02-28T10:37:18;6.10;;;1.63;;
20792;SDS011;10556;-33.662;151.094;2023-02-28T10:42:23;3.07;;;1.30;;
20792;SDS011;10556;-33.662;151.094;2023-02-28T10:47:24;7.47;;;1.50;;
20792;SDS011;10556;-33.662;151.094;2023-02-28T10:52:36;6.53;;;2.07;;
20792;SDS011;10556;-33.662;151.094;2023-02-28T10:57:40;4.10;;;1.60;;
20792;SDS011;10556;-33.662;151.094;2023-02-28T11:02:41;5.53;;;1.40;;
20792;SDS011;10556;-33.662;151.094;2023-02-28T11:07:42;4.73;;;1.50;;
20792;SDS011;10556;-33.662;151.094;2023-02-28T11:12:55;5.87;;;1.73;;
20792;SDS011;10556;-33.662;151.094;2023-02-28T11:17:58;5.93;;;1.47;;
20792;SDS011;10556;-33.662;151.094;2023-02-28T11:23:00;2.23;;;1.30;;
20792;SDS011;10556;-33.662;151.094;2023-02-28T11:28:04;3.80;;;1.50;;
20792;SDS011;10556;-33.662;151.094;2023-02-28T11:33:25;4.13;;;1.60;;
20792;SDS011;10556;-33.662;151.094;2023-02-28T11:38:27;6.00;;;1.40;;
20792;SDS011;10556;-33.662;151.094;2023-02-28T11:43:33;5.07;;;1.47;;
20792;SDS011;10556;-33.662;151.094;2023-02-28T11:48:40;10.00;;;1.73;;
20792;SDS011;10556;-33.662;151.094;2023-02-28T11:53:50;8.80;;;1.60;;
20792;SDS011;10556;-33.662;151.094;2023-02-28T11:58:58;10.40;;;1.70;;
20792;SDS011;10556;-33.662;151.094;2023-02-28T12:04:04;10.53;;;2.20;;
20792;SDS011;10556;-33.662;151.094;2023-02-28T12:09:23;8.13;;;2.10;;
20792;SDS011;10556;-33.662;151.094;2023-02-28T12:14:40;11.30;;;2.13;;
20792;SDS011;10556;-33.662;151.094;2023-02-28T12:19:47;9.40;;;1.97;;
20792;SDS011;10556;-33.662;151.094;2023-02-28T12:25:00;11.63;;;2.00;;
20792;SDS011;10556;-33.662;151.094;2023-02-28T12:30:05;10.10;;;1.90;;
20792;SDS011;10556;-33.662;151.094;2023-02-28T12:35:16;8.03;;;2.77;;
20792;SDS011;10556;-33.662;151.094;2023-02-28T12:40:19;8.73;;;2.00;;
20792;SDS011;10556;-33.662;151.094;2023-02-28T12:45:23;8.57;;;2.20;;
20792;SDS011;10556;-33.662;151.094;2023-02-28T12:50:24;10.80;;;2.30;;
20792;SDS011;10556;-33.662;151.094;2023-02-28T12:55:29;7.07;;;1.73;;
20792;SDS011;10556;-33.662;151.094;2023-02-28T13:00:34;3.10;;;1.60;;
20792;SDS011;10556;-33.662;151.094;2023-02-28T13:05:44;3.00;;;1.30;;
20792;SDS011;10556;-33.662;151.094;2023-02-28T13:10:48;1.87;;;1.30;;
20792;SDS011;10556;-33.662;151.094;2023-02-28T13:16:01;2.87;;;1.50;;
20792;SDS011;10556;-33.662;151.094;2023-02-28T13:21:03;2.30;;;1.20;;
20792;SDS011;10556;-33.662;151.094;2023-02-28T13:26:05;6.23;;;1.87;;
20792;SDS011;10556;-33.662;151.094;2023-02-28T13:31:08;3.47;;;1.50;;
20792;SDS011;10556;-33.662;151.094;2023-02-28T13:36:10;4.87;;;1.80;;
20792;SDS011;10556;-33.662;151.094;2023-02-28T13:52:00;2.27;;;1.20;;
20792;SDS011;10556;-33.662;151.094;2023-02-28T13:57:06;6.70;;;1.77;;
20792;SDS011;10556;-33.662;151.094;2023-02-28T14:07:30;2.63;;;1.30;;
20792;SDS011;10556;-33.662;151.094;2023-02-28T14:18:00;2.70;;;1.27;;
20792;SDS011;10556;-33.662;151.094;2023-02-28T14:23:05;2.30;;;1.20;;
20792;SDS011;10556;-33.662;151.094;2023-02-28T14:28:11;2.07;;;1.13;;
20792;SDS011;10556;-33.662;151.094;2023-02-28T14:33:25;2.97;;;1.50;;
20792;SDS011;10556;-33.662;151.094;2023-02-28T14:38:29;2.67;;;1.40;;
20792;SDS011;10556;-33.662;151.094;2023-02-28T14:43:32;3.23;;;1.80;;
20792;SDS011;10556;-33.662;151.094;2023-02-28T14:48:33;1.57;;;1.43;;
20792;SDS011;10556;-33.662;151.094;2023-02-28T14:53:37;2.37;;;1.30;;
20792;SDS011;10556;-33.662;151.094;2023-02-28T14:58:38;2.93;;;1.37;;
20792;SDS011;10556;-33.662;151.094;2023-02-28T15:03:40;2.57;;;1.40;;
20792;SDS011;10556;-33.662;151.094;2023-02-28T15:08:43;1.70;;;1.27;;
20792;SDS011;10556;-33.662;151.094;2023-02-28T15:13:45;3.67;;;1.60;;
20792;SDS011;10556;-33.662;151.094;2023-02-28T15:18:48;2.40;;;1.23;;
20792;SDS011;10556;-33.662;151.094;2023-02-28T15:23:52;2.03;;;1.20;;
20792;SDS011;10556;-33.662;151.094;2023-02-28T15:28:57;1.73;;;1.10;;
20792;SDS011;10556;-33.662;151.094;2023-02-28T15:34:03;1.93;;;1.20;;
20792;SDS011;10556;-33.662;151.094;2023-02-28T15:39:19;1.40;;;1.30;;
20792;SDS011;10556;-33.662;151.094;2023-02-28T15:44:24;1.83;;;1.27;;
20792;SDS011;10556;-33.662;151.094;2023-02-28T15:49:26;2.13;;;1.30;;
20792;SDS011;10556;-33.662;151.094;2023-02-28T15:54:31;2.30;;;1.40;;
20792;SDS011;10556;-33.662;151.094;2023-02-28T15:59:33;2.57;;;1.63;;
20792;SDS011;10556;-33.662;151.094;2023-02-28T16:04:34;3.07;;;1.60;;
20792;SDS011;10556;-33.662;151.094;2023-02-28T16:09:37;3.30;;;1.73;;
20792;SDS011;10556;-33.662;151.094;2023-02-28T16:14:39;2.70;;;1.47;;
20792;SDS011;10556;-33.662;151.094;2023-02-28T16:19:40;3.00;;;1.93;;
20792;SDS011;10556;-33.662;151.094;2023-02-28T16:24:43;2.30;;;1.60;;
20792;SDS011;10556;-33.662;151.094;2023-02-28T16:29:44;3.33;;;2.10;;
20792;SDS011;10556;-33.662;151.094;2023-02-28T16:34:46;3.13;;;1.70;;
20792;SDS011;10556;-33.662;151.094;2023-02-28T16:39:49;2.57;;;1.53;;
20792;SDS011;10556;-33.662;151.094;2023-02-28T16:44:50;2.37;;;1.73;;
20792;SDS011;10556;-33.662;151.094;2023-02-28T16:49:52;4.07;;;2.00;;
20792;SDS011;10556;-33.662;151.094;2023-02-28T16:54:55;3.10;;;2.00;;
20792;SDS011;10556;-33.662;151.094;2023-02-28T16:59:56;4.20;;;1.97;;
20792;SDS011;10556;-33.662;151.094;2023-02-28T17:04:58;3.43;;;2.10;;
20792;SDS011;10556;-33.662;151.094;2023-02-28T17:10:01;4.90;;;2.67;;
20792;SDS011;10556;-33.662;151.094;2023-02-28T17:15:02;4.30;;;3.17;;
20792;SDS011;10556;-33.662;151.094;2023-02-28T17:20:04;6.07;;;4.17;;
20792;SDS011;10556;-33.662;151.094;2023-02-28T17:25:08;5.60;;;4.37;;
20792;SDS011;10556;-33.662;151.094;2023-02-28T17:30:13;7.13;;;5.80;;
20792;SDS011;10556;-33.662;151.094;2023-02-28T17:35:15;12.70;;;9.23;;
20792;SDS011;10556;-33.662;151.094;2023-02-28T17:40:19;11.80;;;10.27;;
20792;SDS011;10556;-33.662;151.094;2023-02-28T17:45:21;13.83;;;9.83;;
20792;SDS011;10556;-33.662;151.094;2023-02-28T17:50:22;13.20;;;10.07;;
20792;SDS011;10556;-33.662;151.094;2023-02-28T17:55:25;15.03;;;10.23;;
20792;SDS011;10556;-33.662;151.094;2023-02-28T18:00:26;12.10;;;9.70;;
20792;SDS011;10556;-33.662;151.094;2023-02-28T18:05:28;12.23;;;10.93;;
20792;SDS011;10556;-33.662;151.094;2023-02-28T18:10:31;10.90;;;9.27;;
20792;SDS011;10556;-33.662;151.094;2023-02-28T18:15:32;11.13;;;9.27;;
20792;SDS011;10556;-33.662;151.094;2023-02-28T18:20:33;10.07;;;8.93;;
20792;SDS011;10556;-33.662;151.094;2023-02-28T18:25:36;10.47;;;8.70;;
20792;SDS011;10556;-33.662;151.094;2023-02-28T18:30:39;12.20;;;9.13;;
20792;SDS011;10556;-33.662;151.094;2023-02-28T18:35:40;10.63;;;9.03;;
20792;SDS011;10556;-33.662;151.094;2023-02-28T18:40:47;10.60;;;8.60;;
20792;SDS011;10556;-33.662;151.094;2023-02-28T18:45:52;10.63;;;8.73;;
20792;SDS011;10556;-33.662;151.094;2023-02-28T18:50:53;10.80;;;8.40;;
20792;SDS011;10556;-33.662;151.094;2023-02-28T18:56:01;10.20;;;8.37;;
20792;SDS011;10556;-33.662;151.094;2023-02-28T19:01:03;9.07;;;8.07;;
20792;SDS011;10556;-33.662;151.094;2023-02-28T19:06:12;10.43;;;9.33;;
20792;SDS011;10556;-33.662;151.094;2023-02-28T19:11:16;10.67;;;9.57;;
20792;SDS011;10556;-33.662;151.094;2023-02-28T19:16:18;12.93;;;10.60;;
20792;SDS011;10556;-33.662;151.094;2023-02-28T19:21:21;12.53;;;10.33;;
20792;SDS011;10556;-33.662;151.094;2023-02-28T19:26:24;11.63;;;10.03;;
20792;SDS011;10556;-33.662;151.094;2023-02-28T19:31:26;10.80;;;9.57;;
20792;SDS011;10556;-33.662;151.094;2023-02-28T19:36:27;12.60;;;10.43;;
20792;SDS011;10556;-33.662;151.094;2023-02-28T19:41:30;14.33;;;10.43;;
20792;SDS011;10556;-33.662;151.094;2023-02-28T19:46:31;11.13;;;9.10;;
20792;SDS011;10556;-33.662;151.094;2023-02-28T19:51:33;10.17;;;9.00;;
20792;SDS011;10556;-33.662;151.094;2023-02-28T19:56:36;13.87;;;10.73;;
20792;SDS011;10556;-33.662;151.094;2023-02-28T20:01:37;12.43;;;9.07;;
20792;SDS011;10556;-33.662;151.094;2023-02-28T20:06:38;12.03;;;8.70;;
20792;SDS011;10556;-33.662;151.094;2023-02-28T20:11:41;9.90;;;7.40;;
20792;SDS011;10556;-33.662;151.094;2023-02-28T20:16:42;10.17;;;8.43;;
20792;SDS011;10556;-33.662;151.094;2023-02-28T20:21:44;10.97;;;7.70;;
20792;SDS011;10556;-33.662;151.094;2023-02-28T20:26:47;9.83;;;7.40;;
20792;SDS011;10556;-33.662;151.094;2023-02-28T20:31:48;8.70;;;6.73;;
20792;SDS011;10556;-33.662;151.094;2023-02-28T20:36:50;8.43;;;6.90;;
20792;SDS011;10556;-33.662;151.094;2023-02-28T20:41:53;8.47;;;6.47;;
20792;SDS011;10556;-33.662;151.094;2023-02-28T20:46:54;6.73;;;5.77;;
20792;SDS011;10556;-33.662;151.094;2023-02-28T20:51:55;9.80;;;6.57;;
20792;SDS011;10556;-33.662;151.094;2023-02-28T20:56:58;7.37;;;5.97;;
20792;SDS011;10556;-33.662;151.094;2023-02-28T21:01:59;7.13;;;5.70;;
20792;SDS011;10556;-33.662;151.094;2023-02-28T21:07:00;9.47;;;6.20;;
20792;SDS011;10556;-33.662;151.094;2023-02-28T21:12:04;8.70;;;6.50;;
20792;SDS011;10556;-33.662;151.094;2023-02-28T21:17:05;8.40;;;6.10;;
20792;SDS011;10556;-33.662;151.094;2023-02-28T21:22:06;13.00;;;7.13;;
20792;SDS011;10556;-33.662;151.094;2023-02-28T21:27:09;10.87;;;6.53;;
20792;SDS011;10556;-33.662;151.094;2023-02-28T21:32:10;6.67;;;6.00;;
20792;SDS011;10556;-33.662;151.094;2023-02-28T21:37:12;10.53;;;6.80;;
20792;SDS011;10556;-33.662;151.094;2023-02-28T21:42:15;7.93;;;6.20;;
20792;SDS011;10556;-33.662;151.094;2023-02-28T21:47:16;7.43;;;5.30;;
20792;SDS011;10556;-33.662;151.094;2023-02-28T21:52:17;6.60;;;5.47;;
20792;SDS011;10556;-33.662;151.094;2023-02-28T21:57:20;6.67;;;5.93;;
20792;SDS011;10556;-33.662;151.094;2023-02-28T22:02:21;9.23;;;6.50;;
20792;SDS011;10556;-33.662;151.094;2023-02-28T22:07:23;9.03;;;7.07;;
20792;SDS011;10556;-33.662;151.094;2023-02-28T22:12:27;8.77;;;5.83;;
20792;SDS011;10556;-33.662;151.094;2023-02-28T22:17:29;7.10;;;5.50;;
20792;SDS011;10556;-33.662;151.094;2023-02-28T22:22:30;8.57;;;6.07;;
20792;SDS011;10556;-33.662;151.094;2023-02-28T22:27:33;6.80;;;5.90;;
20792;SDS011;10556;-33.662;151.094;2023-02-28T22:32:34;6.73;;;5.17;;
20792;SDS011;10556;-33.662;151.094;2023-02-28T22:37:36;6.20;;;5.23;;
20792;SDS011;10556;-33.662;151.094;2023-02-28T22:42:39;9.77;;;5.93;;
20792;SDS011;10556;-33.662;151.094;2023-02-28T22:47:40;7.77;;;5.70;;
20792;SDS011;10556;-33.662;151.094;2023-02-28T22:52:41;6.30;;;5.30;;
20792;SDS011;10556;-33.662;151.094;2023-02-28T22:57:44;6.07;;;5.17;;
20792;SDS011;10556;-33.662;151.094;2023-02-28T23:02:46;9.23;;;5.43;;
20792;SDS011;10556;-33.662;151.094;2023-02-28T23:07:47;5.23;;;4.17;;
20792;SDS011;10556;-33.662;151.094;2023-02-28T23:12:50;4.93;;;4.03;;
20792;SDS011;10556;-33.662;151.094;2023-02-28T23:17:51;4.80;;;3.67;;
20792;SDS011;10556;-33.662;151.094;2023-02-28T23:22:53;4.63;;;3.47;;
20792;SDS011;10556;-33.662;151.094;2023-02-28T23:27:56;4.65;;;3.17;;
20792;SDS011;10556;-33.662;151.094;2023-02-28T23:32:57;2.80;;;2.38;;
20792;SDS011;10556;-33.662;151.094;2023-02-28T23:37:58;6.00;;;2.50;;
20792;SDS011;10556;-33.662;151.094;2023-02-28T23:43:01;2.40;;;2.20;;
20792;SDS011;10556;-33.662;151.094;2023-02-28T23:48:03;1.70;;;1.60;;
20792;SDS011;10556;-33.662;151.094;2023-02-28T23:53:04;2.03;;;1.50;;
20792;SDS011;10556;-33.662;151.094;2023-02-28T23:58:07;2.50;;;1.65;;
